sensor_id;sensor_type;location;lat;lon;timestamp;P1;durP1;ratioP1;P2;durP2;ratioP2
21927;SDS011;11128;51.096;17.190;2022-09-09T00:02:28;16.55;;;9.52;;
21927;SDS011;11128;51.096;17.190;2022-09-09T00:23:31;17.33;;;7.43;;
21927;SDS011;11128;51.096;17.190;2022-09-09T00:28:52;15.50;;;8.50;;
21927;SDS011;11128;51.096;17.190;2022-09-09T00:34:05;14.63;;;7.18;;
21927;SDS011;11128;51.096;17.190;2022-09-09T00:44:38;12.07;;;5.95;;
21927;SDS011;11128;51.096;17.190;2022-09-09T01:00:27;12.10;;;5.50;;
21927;SDS011;11128;51.096;17.190;2022-09-09T01:05:44;10.43;;;5.20;;
21927;SDS011;11128;51.096;17.190;2022-09-09T01:10:53;8.07;;;5.18;;
21927;SDS011;11128;51.096;17.190;2022-09-09T01:15:56;7.22;;;4.60;;
21927;SDS011;11128;51.096;17.190;2022-09-09T01:21:15;10.35;;;5.18;;
21927;SDS011;11128;51.096;17.190;2022-09-09T01:26:29;8.15;;;5.05;;
21927;SDS011;11128;51.096;17.190;2022-09-09T01:37:01;8.77;;;4.88;;
21927;SDS011;11128;51.096;17.190;2022-09-09T01:42:06;5.65;;;4.28;;
21927;SDS011;11128;51.096;17.190;2022-09-09T01:47:11;9.38;;;4.85;;
21927;SDS011;11128;51.096;17.190;2022-09-09T01:52:12;7.57;;;4.90;;
21927;SDS011;11128;51.096;17.190;2022-09-09T02:02:27;7.93;;;5.25;;
21927;SDS011;11128;51.096;17.190;2022-09-09T02:07:48;4.93;;;4.30;;
21927;SDS011;11128;51.096;17.190;2022-09-09T02:13:00;7.53;;;5.13;;
21927;SDS011;11128;51.096;17.190;2022-09-09T02:18:11;11.18;;;5.50;;
21927;SDS011;11128;51.096;17.190;2022-09-09T02:23:15;6.82;;;5.05;;
21927;SDS011;11128;51.096;17.190;2022-09-09T02:28:16;8.95;;;4.85;;
21927;SDS011;11128;51.096;17.190;2022-09-09T02:33:26;6.80;;;4.78;;
21927;SDS011;11128;51.096;17.190;2022-09-09T02:38:32;5.65;;;4.68;;
21927;SDS011;11128;51.096;17.190;2022-09-09T02:43:39;6.80;;;4.70;;
21927;SDS011;11128;51.096;17.190;2022-09-09T02:53:48;6.20;;;4.35;;
21927;SDS011;11128;51.096;17.190;2022-09-09T02:58:57;7.70;;;4.90;;
21927;SDS011;11128;51.096;17.190;2022-09-09T03:03:59;6.10;;;4.40;;
21927;SDS011;11128;51.096;17.190;2022-09-09T03:09:01;5.53;;;4.07;;
21927;SDS011;11128;51.096;17.190;2022-09-09T03:14:03;8.93;;;4.60;;
21927;SDS011;11128;51.096;17.190;2022-09-09T03:19:05;8.55;;;4.68;;
21927;SDS011;11128;51.096;17.190;2022-09-09T03:24:07;6.95;;;4.15;;
21927;SDS011;11128;51.096;17.190;2022-09-09T03:29:10;5.25;;;3.80;;
21927;SDS011;11128;51.096;17.190;2022-09-09T03:34:13;4.55;;;3.65;;
21927;SDS011;11128;51.096;17.190;2022-09-09T03:39:16;4.57;;;3.25;;
21927;SDS011;11128;51.096;17.190;2022-09-09T03:44:18;4.78;;;3.22;;
21927;SDS011;11128;51.096;17.190;2022-09-09T03:49:20;4.72;;;4.00;;
21927;SDS011;11128;51.096;17.190;2022-09-09T03:54:23;4.80;;;3.67;;
21927;SDS011;11128;51.096;17.190;2022-09-09T03:59:28;5.50;;;4.97;;
21927;SDS011;11128;51.096;17.190;2022-09-09T04:04:29;4.32;;;3.92;;
21927;SDS011;11128;51.096;17.190;2022-09-09T04:09:31;6.68;;;4.55;;
21927;SDS011;11128;51.096;17.190;2022-09-09T04:14:32;9.57;;;5.25;;
21927;SDS011;11128;51.096;17.190;2022-09-09T04:19:34;9.48;;;4.38;;
21927;SDS011;11128;51.096;17.190;2022-09-09T04:24:36;7.28;;;4.38;;
21927;SDS011;11128;51.096;17.190;2022-09-09T04:29:38;5.97;;;4.70;;
21927;SDS011;11128;51.096;17.190;2022-09-09T04:34:40;6.63;;;4.40;;
21927;SDS011;11128;51.096;17.190;2022-09-09T04:39:42;7.53;;;4.40;;
21927;SDS011;11128;51.096;17.190;2022-09-09T04:44:44;4.93;;;3.92;;
21927;SDS011;11128;51.096;17.190;2022-09-09T04:49:45;6.05;;;3.47;;
21927;SDS011;11128;51.096;17.190;2022-09-09T04:54:47;8.68;;;4.05;;
21927;SDS011;11128;51.096;17.190;2022-09-09T04:59:48;6.90;;;3.95;;
21927;SDS011;11128;51.096;17.190;2022-09-09T05:04:50;5.13;;;3.88;;
21927;SDS011;11128;51.096;17.190;2022-09-09T05:09:51;5.57;;;4.10;;
21927;SDS011;11128;51.096;17.190;2022-09-09T05:14:53;7.95;;;4.75;;
21927;SDS011;11128;51.096;17.190;2022-09-09T05:19:54;7.85;;;4.57;;
21927;SDS011;11128;51.096;17.190;2022-09-09T05:24:55;5.82;;;4.72;;
21927;SDS011;11128;51.096;17.190;2022-09-09T05:29:57;7.15;;;4.47;;
21927;SDS011;11128;51.096;17.190;2022-09-09T05:34:59;7.13;;;5.13;;
21927;SDS011;11128;51.096;17.190;2022-09-09T05:40:00;7.75;;;5.72;;
21927;SDS011;11128;51.096;17.190;2022-09-09T05:45:03;7.47;;;5.68;;
21927;SDS011;11128;51.096;17.190;2022-09-09T05:50:05;9.00;;;6.22;;
21927;SDS011;11128;51.096;17.190;2022-09-09T05:55:07;10.63;;;8.15;;
21927;SDS011;11128;51.096;17.190;2022-09-09T06:00:09;11.20;;;7.10;;
21927;SDS011;11128;51.096;17.190;2022-09-09T06:05:12;9.52;;;7.38;;
21927;SDS011;11128;51.096;17.190;2022-09-09T06:10:15;10.75;;;7.45;;
21927;SDS011;11128;51.096;17.190;2022-09-09T06:15:17;10.05;;;7.57;;
21927;SDS011;11128;51.096;17.190;2022-09-09T06:20:18;7.85;;;5.97;;
21927;SDS011;11128;51.096;17.190;2022-09-09T06:25:20;11.90;;;5.57;;
21927;SDS011;11128;51.096;17.190;2022-09-09T06:30:22;6.05;;;5.30;;
21927;SDS011;11128;51.096;17.190;2022-09-09T06:35:24;6.18;;;4.45;;
21927;SDS011;11128;51.096;17.190;2022-09-09T06:40:25;4.53;;;4.13;;
21927;SDS011;11128;51.096;17.190;2022-09-09T06:45:27;5.78;;;3.67;;
21927;SDS011;11128;51.096;17.190;2022-09-09T06:50:29;4.68;;;3.72;;
21927;SDS011;11128;51.096;17.190;2022-09-09T06:55:31;4.60;;;3.03;;
21927;SDS011;11128;51.096;17.190;2022-09-09T07:00:32;3.10;;;2.70;;
21927;SDS011;11128;51.096;17.190;2022-09-09T07:05:33;3.63;;;3.00;;
21927;SDS011;11128;51.096;17.190;2022-09-09T07:10:35;4.13;;;3.10;;
21927;SDS011;11128;51.096;17.190;2022-09-09T07:15:36;2.53;;;2.33;;
21927;SDS011;11128;51.096;17.190;2022-09-09T07:20:39;2.70;;;2.45;;
21927;SDS011;11128;51.096;17.190;2022-09-09T07:25:44;4.50;;;2.90;;
21927;SDS011;11128;51.096;17.190;2022-09-09T07:30:59;3.17;;;2.88;;
21927;SDS011;11128;51.096;17.190;2022-09-09T07:36:09;3.85;;;2.33;;
21927;SDS011;11128;51.096;17.190;2022-09-09T07:41:34;5.05;;;2.00;;
21927;SDS011;11128;51.096;17.190;2022-09-09T07:46:46;4.00;;;2.08;;
21927;SDS011;11128;51.096;17.190;2022-09-09T07:51:48;3.22;;;2.05;;
21927;SDS011;11128;51.096;17.190;2022-09-09T07:56:50;3.65;;;2.22;;
21927;SDS011;11128;51.096;17.190;2022-09-09T08:01:53;2.08;;;1.67;;
21927;SDS011;11128;51.096;17.190;2022-09-09T08:06:56;2.92;;;1.80;;
21927;SDS011;11128;51.096;17.190;2022-09-09T08:12:00;1.40;;;1.30;;
21927;SDS011;11128;51.096;17.190;2022-09-09T08:17:02;3.65;;;1.80;;
21927;SDS011;11128;51.096;17.190;2022-09-09T08:22:04;1.52;;;1.30;;
21927;SDS011;11128;51.096;17.190;2022-09-09T08:27:05;2.33;;;1.33;;
21927;SDS011;11128;51.096;17.190;2022-09-09T08:32:07;1.95;;;1.20;;
21927;SDS011;11128;51.096;17.190;2022-09-09T08:37:09;2.95;;;1.40;;
21927;SDS011;11128;51.096;17.190;2022-09-09T08:58:12;1.50;;;0.98;;
21927;SDS011;11128;51.096;17.190;2022-09-09T09:08:29;3.10;;;1.00;;
21927;SDS011;11128;51.096;17.190;2022-09-09T09:13:39;1.93;;;0.90;;
21927;SDS011;11128;51.096;17.190;2022-09-09T09:18:48;1.02;;;0.95;;
21927;SDS011;11128;51.096;17.190;2022-09-09T09:23:57;1.30;;;0.60;;
21927;SDS011;11128;51.096;17.190;2022-09-09T09:29:01;0.98;;;0.80;;
21927;SDS011;11128;51.096;17.190;2022-09-09T09:34:14;1.48;;;0.80;;
21927;SDS011;11128;51.096;17.190;2022-09-09T09:39:26;0.73;;;0.50;;
21927;SDS011;11128;51.096;17.190;2022-09-09T09:44:31;1.45;;;0.98;;
21927;SDS011;11128;51.096;17.190;2022-09-09T09:49:32;1.05;;;0.70;;
21927;SDS011;11128;51.096;17.190;2022-09-09T09:54:38;1.88;;;0.88;;
21927;SDS011;11128;51.096;17.190;2022-09-09T09:59:43;1.90;;;0.95;;
21927;SDS011;11128;51.096;17.190;2022-09-09T10:04:45;1.23;;;0.93;;
21927;SDS011;11128;51.096;17.190;2022-09-09T10:09:53;1.00;;;0.95;;
21927;SDS011;11128;51.096;17.190;2022-09-09T10:36:27;1.48;;;0.70;;
21927;SDS011;11128;51.096;17.190;2022-09-09T10:41:42;4.30;;;0.80;;
21927;SDS011;11128;51.096;17.190;2022-09-09T10:46:52;1.65;;;0.77;;
21927;SDS011;11128;51.096;17.190;2022-09-09T10:52:28;4.07;;;0.60;;
21927;SDS011;11128;51.096;17.190;2022-09-09T10:57:44;0.95;;;0.65;;
21927;SDS011;11128;51.096;17.190;2022-09-09T11:02:58;1.25;;;0.63;;
21927;SDS011;11128;51.096;17.190;2022-09-09T11:08:05;0.68;;;0.57;;
21927;SDS011;11128;51.096;17.190;2022-09-09T11:13:27;1.13;;;0.60;;
21927;SDS011;11128;51.096;17.190;2022-09-09T11:18:41;1.35;;;0.82;;
21927;SDS011;11128;51.096;17.190;2022-09-09T11:23:48;0.65;;;0.50;;
21927;SDS011;11128;51.096;17.190;2022-09-09T11:29:04;1.08;;;0.73;;
21927;SDS011;11128;51.096;17.190;2022-09-09T11:44:31;0.90;;;0.57;;
21927;SDS011;11128;51.096;17.190;2022-09-09T11:49:42;1.95;;;0.50;;
21927;SDS011;11128;51.096;17.190;2022-09-09T11:54:46;1.70;;;0.65;;
21927;SDS011;11128;51.096;17.190;2022-09-09T11:59:50;0.52;;;0.50;;
21927;SDS011;11128;51.096;17.190;2022-09-09T12:15:30;1.38;;;0.57;;
21927;SDS011;11128;51.096;17.190;2022-09-09T12:36:25;1.60;;;0.70;;
21927;SDS011;11128;51.096;17.190;2022-09-09T12:41:31;1.77;;;0.60;;
21927;SDS011;11128;51.096;17.190;2022-09-09T12:46:36;4.00;;;0.70;;
21927;SDS011;11128;51.096;17.190;2022-09-09T12:51:42;2.05;;;0.60;;
21927;SDS011;11128;51.096;17.190;2022-09-09T12:56:45;1.40;;;0.80;;
21927;SDS011;11128;51.096;17.190;2022-09-09T13:01:55;1.20;;;0.68;;
21927;SDS011;11128;51.096;17.190;2022-09-09T13:07:07;2.33;;;0.73;;
21927;SDS011;11128;51.096;17.190;2022-09-09T13:12:14;3.67;;;0.70;;
21927;SDS011;11128;51.096;17.190;2022-09-09T13:17:21;2.25;;;0.77;;
21927;SDS011;11128;51.096;17.190;2022-09-09T13:22:31;1.80;;;0.70;;
21927;SDS011;11128;51.096;17.190;2022-09-09T13:27:40;0.68;;;0.63;;
21927;SDS011;11128;51.096;17.190;2022-09-09T13:32:43;1.45;;;0.70;;
21927;SDS011;11128;51.096;17.190;2022-09-09T13:37:45;1.63;;;0.70;;
21927;SDS011;11128;51.096;17.190;2022-09-09T13:42:50;2.72;;;1.20;;
21927;SDS011;11128;51.096;17.190;2022-09-09T13:47:56;1.33;;;0.70;;
21927;SDS011;11128;51.096;17.190;2022-09-09T13:53:09;2.40;;;1.10;;
21927;SDS011;11128;51.096;17.190;2022-09-09T13:58:16;0.90;;;0.55;;
21927;SDS011;11128;51.096;17.190;2022-09-09T14:03:19;1.50;;;0.50;;
21927;SDS011;11128;51.096;17.190;2022-09-09T14:08:25;1.38;;;1.00;;
21927;SDS011;11128;51.096;17.190;2022-09-09T14:13:27;2.03;;;0.80;;
21927;SDS011;11128;51.096;17.190;2022-09-09T14:18:29;1.08;;;0.90;;
21927;SDS011;11128;51.096;17.190;2022-09-09T14:23:31;0.98;;;0.80;;
21927;SDS011;11128;51.096;17.190;2022-09-09T14:28:33;1.45;;;0.88;;
21927;SDS011;11128;51.096;17.190;2022-09-09T14:33:36;1.77;;;0.85;;
21927;SDS011;11128;51.096;17.190;2022-09-09T14:38:38;2.15;;;0.80;;
21927;SDS011;11128;51.096;17.190;2022-09-09T14:43:40;2.13;;;1.00;;
21927;SDS011;11128;51.096;17.190;2022-09-09T14:48:42;2.42;;;1.15;;
21927;SDS011;11128;51.096;17.190;2022-09-09T14:53:52;0.75;;;0.75;;
21927;SDS011;11128;51.096;17.190;2022-09-09T14:58:58;2.40;;;0.98;;
21927;SDS011;11128;51.096;17.190;2022-09-09T15:04:03;1.40;;;0.88;;
21927;SDS011;11128;51.096;17.190;2022-09-09T15:09:07;4.63;;;1.20;;
21927;SDS011;11128;51.096;17.190;2022-09-09T15:14:09;1.35;;;1.02;;
21927;SDS011;11128;51.096;17.190;2022-09-09T15:19:13;5.03;;;2.85;;
21927;SDS011;11128;51.096;17.190;2022-09-09T15:24:14;2.90;;;2.10;;
21927;SDS011;11128;51.096;17.190;2022-09-09T15:29:16;4.38;;;2.00;;
21927;SDS011;11128;51.096;17.190;2022-09-09T15:34:20;4.00;;;2.25;;
21927;SDS011;11128;51.096;17.190;2022-09-09T15:39:21;3.50;;;2.05;;
21927;SDS011;11128;51.096;17.190;2022-09-09T15:44:23;2.67;;;1.38;;
21927;SDS011;11128;51.096;17.190;2022-09-09T15:49:26;1.95;;;1.27;;
21927;SDS011;11128;51.096;17.190;2022-09-09T15:54:27;3.30;;;1.60;;
21927;SDS011;11128;51.096;17.190;2022-09-09T15:59:33;2.65;;;1.30;;
21927;SDS011;11128;51.096;17.190;2022-09-09T16:04:35;2.00;;;1.15;;
21927;SDS011;11128;51.096;17.190;2022-09-09T16:09:36;2.10;;;1.05;;
21927;SDS011;11128;51.096;17.190;2022-09-09T16:14:38;1.33;;;1.00;;
21927;SDS011;11128;51.096;17.190;2022-09-09T16:19:40;1.33;;;1.00;;
21927;SDS011;11128;51.096;17.190;2022-09-09T16:24:42;2.80;;;1.30;;
21927;SDS011;11128;51.096;17.190;2022-09-09T16:29:46;3.28;;;1.33;;
21927;SDS011;11128;51.096;17.190;2022-09-09T16:34:47;2.55;;;1.10;;
21927;SDS011;11128;51.096;17.190;2022-09-09T16:39:49;1.33;;;0.88;;
21927;SDS011;11128;51.096;17.190;2022-09-09T16:44:51;3.13;;;1.33;;
21927;SDS011;11128;51.096;17.190;2022-09-09T16:49:52;2.42;;;1.20;;
21927;SDS011;11128;51.096;17.190;2022-09-09T16:54:54;2.85;;;1.20;;
21927;SDS011;11128;51.096;17.190;2022-09-09T16:59:58;5.00;;;1.40;;
21927;SDS011;11128;51.096;17.190;2022-09-09T17:05:05;3.17;;;1.60;;
21927;SDS011;11128;51.096;17.190;2022-09-09T17:10:07;1.92;;;1.25;;
21927;SDS011;11128;51.096;17.190;2022-09-09T17:15:09;7.07;;;1.58;;
21927;SDS011;11128;51.096;17.190;2022-09-09T17:20:11;5.95;;;3.08;;
21927;SDS011;11128;51.096;17.190;2022-09-09T17:25:13;12.88;;;4.18;;
21927;SDS011;11128;51.096;17.190;2022-09-09T17:30:16;8.40;;;3.67;;
21927;SDS011;11128;51.096;17.190;2022-09-09T17:35:19;3.88;;;2.05;;
21927;SDS011;11128;51.096;17.190;2022-09-09T17:40:21;5.05;;;2.00;;
21927;SDS011;11128;51.096;17.190;2022-09-09T17:45:23;7.22;;;3.58;;
21927;SDS011;11128;51.096;17.190;2022-09-09T17:50:26;4.75;;;2.67;;
21927;SDS011;11128;51.096;17.190;2022-09-09T17:55:28;5.32;;;2.65;;
21927;SDS011;11128;51.096;17.190;2022-09-09T18:00:30;2.88;;;2.00;;
21927;SDS011;11128;51.096;17.190;2022-09-09T18:05:31;4.75;;;2.30;;
21927;SDS011;11128;51.096;17.190;2022-09-09T18:10:33;2.58;;;1.80;;
21927;SDS011;11128;51.096;17.190;2022-09-09T18:15:37;5.18;;;2.45;;
21927;SDS011;11128;51.096;17.190;2022-09-09T18:20:40;2.65;;;1.90;;
21927;SDS011;11128;51.096;17.190;2022-09-09T18:25:41;5.13;;;1.95;;
21927;SDS011;11128;51.096;17.190;2022-09-09T18:30:44;5.03;;;2.60;;
21927;SDS011;11128;51.096;17.190;2022-09-09T18:35:45;2.60;;;2.15;;
21927;SDS011;11128;51.096;17.190;2022-09-09T18:40:48;4.95;;;2.45;;
21927;SDS011;11128;51.096;17.190;2022-09-09T18:45:50;2.50;;;1.58;;
21927;SDS011;11128;51.096;17.190;2022-09-09T18:50:52;4.28;;;2.15;;
21927;SDS011;11128;51.096;17.190;2022-09-09T18:56:01;5.20;;;2.30;;
21927;SDS011;11128;51.096;17.190;2022-09-09T19:01:07;2.08;;;1.80;;
21927;SDS011;11128;51.096;17.190;2022-09-09T19:06:12;3.63;;;2.30;;
21927;SDS011;11128;51.096;17.190;2022-09-09T19:11:16;3.88;;;2.47;;
21927;SDS011;11128;51.096;17.190;2022-09-09T19:16:21;2.63;;;2.13;;
21927;SDS011;11128;51.096;17.190;2022-09-09T19:21:25;4.28;;;2.40;;
21927;SDS011;11128;51.096;17.190;2022-09-09T19:26:30;4.57;;;2.45;;
21927;SDS011;11128;51.096;17.190;2022-09-09T19:31:37;4.88;;;3.17;;
21927;SDS011;11128;51.096;17.190;2022-09-09T19:36:41;4.10;;;2.40;;
21927;SDS011;11128;51.096;17.190;2022-09-09T19:41:43;4.28;;;2.70;;
21927;SDS011;11128;51.096;17.190;2022-09-09T19:46:46;4.88;;;2.78;;
21927;SDS011;11128;51.096;17.190;2022-09-09T19:51:47;4.00;;;2.38;;
21927;SDS011;11128;51.096;17.190;2022-09-09T19:56:49;5.63;;;2.70;;
21927;SDS011;11128;51.096;17.190;2022-09-09T20:01:51;3.25;;;2.33;;
21927;SDS011;11128;51.096;17.190;2022-09-09T20:06:55;4.10;;;2.33;;
21927;SDS011;11128;51.096;17.190;2022-09-09T20:11:56;4.18;;;2.42;;
21927;SDS011;11128;51.096;17.190;2022-09-09T20:16:58;7.80;;;3.40;;
21927;SDS011;11128;51.096;17.190;2022-09-09T20:22:00;9.52;;;3.97;;
21927;SDS011;11128;51.096;17.190;2022-09-09T20:27:03;5.95;;;4.00;;
21927;SDS011;11128;51.096;17.190;2022-09-09T20:32:06;6.75;;;2.75;;
21927;SDS011;11128;51.096;17.190;2022-09-09T20:37:09;6.00;;;3.00;;
21927;SDS011;11128;51.096;17.190;2022-09-09T20:42:11;4.15;;;2.33;;
21927;SDS011;11128;51.096;17.190;2022-09-09T20:47:13;7.20;;;2.88;;
21927;SDS011;11128;51.096;17.190;2022-09-09T20:52:14;4.75;;;2.40;;
21927;SDS011;11128;51.096;17.190;2022-09-09T20:57:16;6.03;;;2.20;;
21927;SDS011;11128;51.096;17.190;2022-09-09T21:02:22;5.25;;;2.47;;
21927;SDS011;11128;51.096;17.190;2022-09-09T21:07:23;4.35;;;2.08;;
21927;SDS011;11128;51.096;17.190;2022-09-09T21:12:25;5.25;;;1.85;;
21927;SDS011;11128;51.096;17.190;2022-09-09T21:17:26;2.05;;;1.85;;
21927;SDS011;11128;51.096;17.190;2022-09-09T21:22:28;1.95;;;1.30;;
21927;SDS011;11128;51.096;17.190;2022-09-09T21:27:30;6.68;;;1.70;;
21927;SDS011;11128;51.096;17.190;2022-09-09T21:32:31;3.78;;;1.95;;
21927;SDS011;11128;51.096;17.190;2022-09-09T21:37:33;4.70;;;2.13;;
21927;SDS011;11128;51.096;17.190;2022-09-09T21:42:34;4.93;;;2.20;;
21927;SDS011;11128;51.096;17.190;2022-09-09T21:47:36;3.05;;;1.95;;
21927;SDS011;11128;51.096;17.190;2022-09-09T21:52:37;3.35;;;2.60;;
21927;SDS011;11128;51.096;17.190;2022-09-09T21:57:39;2.08;;;1.80;;
21927;SDS011;11128;51.096;17.190;2022-09-09T22:02:41;4.20;;;2.50;;
21927;SDS011;11128;51.096;17.190;2022-09-09T22:07:44;4.05;;;1.98;;
21927;SDS011;11128;51.096;17.190;2022-09-09T22:12:46;2.22;;;1.30;;
21927;SDS011;11128;51.096;17.190;2022-09-09T22:17:48;2.50;;;1.90;;
21927;SDS011;11128;51.096;17.190;2022-09-09T22:22:49;2.33;;;1.63;;
21927;SDS011;11128;51.096;17.190;2022-09-09T22:27:51;2.35;;;1.48;;
21927;SDS011;11128;51.096;17.190;2022-09-09T22:32:52;3.03;;;2.13;;
21927;SDS011;11128;51.096;17.190;2022-09-09T22:37:56;5.30;;;1.60;;
21927;SDS011;11128;51.096;17.190;2022-09-09T22:42:57;5.20;;;2.00;;
21927;SDS011;11128;51.096;17.190;2022-09-09T22:47:59;5.72;;;1.50;;
21927;SDS011;11128;51.096;17.190;2022-09-09T22:53:02;2.72;;;1.20;;
21927;SDS011;11128;51.096;17.190;2022-09-09T22:58:04;4.25;;;1.20;;
21927;SDS011;11128;51.096;17.190;2022-09-09T23:03:05;3.70;;;1.33;;
21927;SDS011;11128;51.096;17.190;2022-09-09T23:08:08;2.65;;;1.67;;
21927;SDS011;11128;51.096;17.190;2022-09-09T23:13:10;2.58;;;1.45;;
21927;SDS011;11128;51.096;17.190;2022-09-09T23:18:12;1.17;;;1.08;;
21927;SDS011;11128;51.096;17.190;2022-09-09T23:23:14;2.85;;;1.13;;
21927;SDS011;11128;51.096;17.190;2022-09-09T23:28:15;2.13;;;1.00;;
21927;SDS011;11128;51.096;17.190;2022-09-09T23:33:18;3.20;;;1.10;;
21927;SDS011;11128;51.096;17.190;2022-09-09T23:38:20;3.25;;;1.00;;
21927;SDS011;11128;51.096;17.190;2022-09-09T23:43:24;3.22;;;1.10;;
21927;SDS011;11128;51.096;17.190;2022-09-09T23:48:26;1.75;;;1.08;;
21927;SDS011;11128;51.096;17.190;2022-09-09T23:53:27;2.78;;;1.40;;
21927;SDS011;11128;51.096;17.190;2022-09-09T23:58:29;2.72;;;1.30;;
